Time;durP1;ratioP1;P1;durP2;ratioP2;P2;SDS_P1;SDS_P2;PMS_P1;PMS_P2;Temp;Humidity;BMP_temperature;BMP_pressure;BME280_temperature;BME280_humidity;BME280_pressure;Samples;Min_cycle;Max_cycle;Signal;HPM_P1;HPM_P2
2021/03/12 00:00:30;;;;;;;8.23;2.30;;;;;;;;;;5034763;28;20427;-55
2021/03/12 00:02:56;;;;;;;2.90;1.73;;;;;;;;;;5031162;28;20463;-55
2021/03/12 00:05:22;;;;;;;2.43;1.60;;;;;;;;;;5035410;28;20454;-54
2021/03/12 00:07:48;;;;;;;5.33;2.37;;;;;;;;;;5034525;28;20445;-54
2021/03/12 00:10:17;;;;;;;7.70;2.27;;;;;;;;;;5034317;28;20407;-54
2021/03/12 00:12:43;;;;;;;7.23;2.00;;;;;;;;;;5034889;28;20486;-54
2021/03/12 00:15:10;;;;;;;3.22;2.20;;;;;;;;;;5030977;28;20464;-54
2021/03/12 00:17:36;;;;;;;6.83;2.00;;;;;;;;;;5034290;28;20561;-53
2021/03/12 00:20:05;;;;;;;2.57;1.80;;;;;;;;;;5033582;28;20904;-55
2021/03/12 00:22:31;;;;;;;6.17;2.60;;;;;;;;;;5033660;28;20410;-54
2021/03/12 00:24:57;;;;;;;4.97;2.20;;;;;;;;;;5034156;28;20454;-54
2021/03/12 00:27:23;;;;;;;6.33;2.80;;;;;;;;;;5033881;28;20418;-54
2021/03/12 00:29:49;;;;;;;3.47;2.07;;;;;;;;;;5034626;28;20411;-53
2021/03/12 00:32:15;;;;;;;2.47;2.27;;;;;;;;;;5029645;28;20481;-53
2021/03/12 00:34:40;;;;;;;2.40;2.20;;;;;;;;;;5034085;28;20531;-56
2021/03/12 00:37:06;;;;;;;2.40;1.87;;;;;;;;;;5034132;28;20481;-53
2021/03/12 00:39:33;;;;;;;5.63;2.10;;;;;;;;;;5034076;28;20426;-53
2021/03/12 00:41:59;;;;;;;5.30;2.80;;;;;;;;;;5033993;28;20404;-55
2021/03/12 00:44:25;;;;;;;4.97;2.70;;;;;;;;;;5032785;28;20838;-53
2021/03/12 00:46:51;;;;;;;7.40;1.97;;;;;;;;;;5033702;28;20461;-53
2021/03/12 00:49:18;;;;;;;4.22;2.30;;;;;;;;;;5033359;28;20789;-52
2021/03/12 00:51:44;;;;;;;3.00;2.17;;;;;;;;;;5034011;28;20571;-53
2021/03/12 00:54:09;;;;;;;4.80;2.07;;;;;;;;;;5033727;28;20413;-55
2021/03/12 00:56:35;;;;;;;4.17;2.33;;;;;;;;;;5033978;28;20506;-52
2021/03/12 00:59:01;;;;;;;4.33;1.90;;;;;;;;;;5033026;28;20481;-53
2021/03/12 01:01:27;;;;;;;4.40;2.00;;;;;;;;;;5029250;28;20521;-53
2021/03/12 01:03:53;;;;;;;6.13;2.57;;;;;;;;;;5033968;28;20450;-55
2021/03/12 01:06:19;;;;;;;7.77;2.10;;;;;;;;;;5032408;28;20432;-53
2021/03/12 01:08:45;;;;;;;6.27;2.37;;;;;;;;;;5033553;28;20449;-54
2021/03/12 01:11:11;;;;;;;11.23;2.10;;;;;;;;;;5033412;28;20909;-54
2021/03/12 01:13:37;;;;;;;8.40;3.20;;;;;;;;;;5033319;28;20406;-55
2021/03/12 01:16:03;;;;;;;4.93;2.57;;;;;;;;;;5030442;28;21015;-56
2021/03/12 01:18:30;;;;;;;9.15;2.92;;;;;;;;;;5032909;28;20480;-59
2021/03/12 01:20:56;;;;;;;6.65;2.22;;;;;;;;;;5032903;28;20643;-54
2021/03/12 01:23:21;;;;;;;4.70;2.60;;;;;;;;;;5032955;28;20208;-53
2021/03/12 01:25:47;;;;;;;2.60;2.40;;;;;;;;;;5033487;28;20464;-57
2021/03/12 01:28:13;;;;;;;6.47;2.40;;;;;;;;;;5032365;28;20423;-53
2021/03/12 01:30:41;;;;;;;5.20;2.30;;;;;;;;;;5032988;28;20889;-53
2021/03/12 01:33:07;;;;;;;5.15;2.58;;;;;;;;;;5028997;28;20917;-53
2021/03/12 01:35:33;;;;;;;6.57;3.05;;;;;;;;;;5032876;28;20175;-54
2021/03/12 01:37:59;;;;;;;6.05;2.33;;;;;;;;;;5032478;28;20204;-54
2021/03/12 01:40:27;;;;;;;5.67;2.13;;;;;;;;;;5032805;28;20176;-53
2021/03/12 01:42:54;;;;;;;3.90;2.20;;;;;;;;;;5032796;28;20494;-53
2021/03/12 01:45:25;;;;;;;8.98;3.22;;;;;;;;;;5032703;28;20282;-52
2021/03/12 01:47:51;;;;;;;7.43;2.93;;;;;;;;;;5032494;28;20191;-53
2021/03/12 01:50:18;;;;;;;3.73;2.40;;;;;;;;;;5032981;28;20393;-53
2021/03/12 01:52:44;;;;;;;13.82;3.30;;;;;;;;;;5032872;28;20416;-60
2021/03/12 01:55:15;;;;;;;6.85;3.20;;;;;;;;;;5032890;28;20191;-54
2021/03/12 01:57:41;;;;;;;7.00;3.57;;;;;;;;;;5032109;28;20196;-54
2021/03/12 02:00:08;;;;;;;9.73;3.60;;;;;;;;;;5032292;28;20903;-54
2021/03/12 02:02:34;;;;;;;13.63;4.57;;;;;;;;;;5028610;28;20651;-55
2021/03/12 02:05:00;;;;;;;7.33;4.33;;;;;;;;;;5032229;28;20189;-54
2021/03/12 02:07:26;;;;;;;8.10;5.07;;;;;;;;;;5031666;28;20403;-54
2021/03/12 02:09:52;;;;;;;10.23;5.50;;;;;;;;;;5032605;28;20387;-54
2021/03/12 02:12:37;;;;;;;12.75;6.07;;;;;;;;;;5032518;28;20169;-52
2021/03/12 02:15:11;;;;;;;7.32;5.55;;;;;;;;;;5032776;28;20182;-52
2021/03/12 02:17:45;;;;;;;6.87;4.40;;;;;;;;;;5032819;28;20184;-54
2021/03/12 02:20:17;;;;;;;7.63;3.95;;;;;;;;;;5032841;28;20747;-52
2021/03/12 02:22:45;;;;;;;9.95;3.67;;;;;;;;;;5032927;28;20261;-52
2021/03/12 02:25:14;;;;;;;5.33;3.70;;;;;;;;;;5032958;28;20595;-55
2021/03/12 02:27:41;;;;;;;6.38;3.30;;;;;;;;;;5032670;28;20963;-64
2021/03/12 02:30:08;;;;;;;12.52;3.90;;;;;;;;;;5032585;28;20172;-54
2021/03/12 02:32:39;;;;;;;12.57;4.43;;;;;;;;;;5031112;28;20186;-52
2021/03/12 02:35:10;;;;;;;6.75;3.67;;;;;;;;;;5034115;28;20194;-51
2021/03/12 02:37:36;;;;;;;10.75;4.10;;;;;;;;;;5034175;28;20182;-51
2021/03/12 02:40:04;;;;;;;10.88;3.85;;;;;;;;;;5034503;28;20624;-51
2021/03/12 02:42:30;;;;;;;4.30;3.50;;;;;;;;;;5038409;28;20233;-52
2021/03/12 02:44:59;;;;;;;15.03;4.00;;;;;;;;;;5043656;28;20193;-54
2021/03/12 02:47:33;;;;;;;7.82;3.70;;;;;;;;;;5044526;28;20410;-54
2021/03/12 02:49:59;;;;;;;13.02;4.45;;;;;;;;;;5043807;28;20313;-54
2021/03/12 02:52:26;;;;;;;5.80;3.97;;;;;;;;;;5044605;28;20235;-55
2021/03/12 02:54:52;;;;;;;11.73;4.90;;;;;;;;;;5045556;28;20184;-54
2021/03/12 02:57:40;;;;;;;5.70;3.70;;;;;;;;;;5045104;28;20282;-54
2021/03/12 03:00:06;;;;;;;8.00;4.45;;;;;;;;;;5043718;28;20254;-56
2021/03/12 03:02:41;;;;;;;10.43;4.63;;;;;;;;;;5043374;28;20643;-53
2021/03/12 03:05:08;;;;;;;10.60;4.68;;;;;;;;;;5044664;28;20215;-55
2021/03/12 03:07:35;;;;;;;14.55;5.53;;;;;;;;;;5044591;28;20167;-55
2021/03/12 03:10:01;;;;;;;7.40;4.35;;;;;;;;;;5044637;28;20171;-53
2021/03/12 03:12:28;;;;;;;9.15;5.05;;;;;;;;;;5045216;28;20164;-54
2021/03/12 03:14:59;;;;;;;11.15;5.05;;;;;;;;;;5043914;28;20172;-55
2021/03/12 03:17:25;;;;;;;7.70;4.75;;;;;;;;;;5043953;28;20175;-55
2021/03/12 03:19:52;;;;;;;10.80;6.10;;;;;;;;;;5044902;28;20225;-53
2021/03/12 03:22:19;;;;;;;11.10;5.90;;;;;;;;;;5044510;28;20167;-54
2021/03/12 03:24:45;;;;;;;8.63;4.72;;;;;;;;;;5044126;28;20283;-53
2021/03/12 03:27:11;;;;;;;7.13;4.20;;;;;;;;;;5044688;28;20165;-52
2021/03/12 03:30:05;;;;;;;9.40;3.80;;;;;;;;;;5045229;28;20187;-53
2021/03/12 03:32:35;;;;;;;10.52;4.05;;;;;;;;;;5032453;28;20183;-53
2021/03/12 03:35:01;;;;;;;9.43;3.85;;;;;;;;;;5044060;28;20198;-54
2021/03/12 03:37:28;;;;;;;9.88;3.88;;;;;;;;;;5043523;28;20259;-54
2021/03/12 03:39:54;;;;;;;10.35;4.45;;;;;;;;;;5044138;28;20183;-54
2021/03/12 03:42:32;;;;;;;5.30;3.85;;;;;;;;;;5042784;28;20175;-53
2021/03/12 03:45:04;;;;;;;11.20;3.85;;;;;;;;;;5043217;28;20196;-53
2021/03/12 03:47:33;;;;;;;8.70;3.55;;;;;;;;;;5043345;28;20171;-54
2021/03/12 03:50:00;;;;;;;12.05;3.85;;;;;;;;;;5043962;28;20545;-53
2021/03/12 03:52:27;;;;;;;5.03;3.92;;;;;;;;;;5043866;28;20591;-53
2021/03/12 03:54:54;;;;;;;7.40;3.55;;;;;;;;;;5043643;28;20194;-54
2021/03/12 03:57:23;;;;;;;9.90;3.35;;;;;;;;;;5042675;28;20179;-52
2021/03/12 04:00:05;;;;;;;10.90;3.72;;;;;;;;;;5043115;28;20187;-54
2021/03/12 04:02:33;;;;;;;8.48;2.90;;;;;;;;;;5040735;28;20273;-55
2021/03/12 04:05:00;;;;;;;4.15;3.08;;;;;;;;;;5042685;28;20203;-54
2021/03/12 04:07:26;;;;;;;7.68;3.03;;;;;;;;;;5042297;28;20174;-54
2021/03/12 04:09:52;;;;;;;7.03;3.80;;;;;;;;;;5042323;28;20646;-54
2021/03/12 04:12:19;;;;;;;5.40;3.60;;;;;;;;;;5043190;28;20179;-54
2021/03/12 04:14:46;;;;;;;8.00;4.10;;;;;;;;;;5041743;28;20168;-53
2021/03/12 04:17:12;;;;;;;13.32;3.78;;;;;;;;;;5043383;28;20527;-53
2021/03/12 04:19:39;;;;;;;6.65;3.80;;;;;;;;;;5043034;28;20187;-54
2021/03/12 04:22:06;;;;;;;8.55;4.35;;;;;;;;;;5043080;28;20203;-55
2021/03/12 04:24:33;;;;;;;6.72;3.53;;;;;;;;;;5044131;28;20207;-52
2021/03/12 04:26:59;;;;;;;4.90;3.90;;;;;;;;;;5043322;28;20171;-54
2021/03/12 04:29:34;;;;;;;7.07;4.47;;;;;;;;;;5042591;28;20198;-54
2021/03/12 04:32:21;;;;;;;10.05;4.00;;;;;;;;;;5039521;28;20175;-55
2021/03/12 04:34:56;;;;;;;9.55;3.90;;;;;;;;;;5042341;28;20171;-55
2021/03/12 04:37:22;;;;;;;10.50;3.97;;;;;;;;;;5042532;28;20175;-52
2021/03/12 04:39:49;;;;;;;7.60;4.72;;;;;;;;;;5042599;28;20180;-53
2021/03/12 04:42:24;;;;;;;7.85;4.38;;;;;;;;;;5042997;28;20172;-56
2021/03/12 04:44:50;;;;;;;10.60;4.90;;;;;;;;;;5042840;28;20199;-53
2021/03/12 04:47:16;;;;;;;6.95;3.95;;;;;;;;;;5041824;28;20766;-53
2021/03/12 04:49:44;;;;;;;8.20;5.13;;;;;;;;;;5042034;28;20230;-54
2021/03/12 04:52:10;;;;;;;8.18;4.55;;;;;;;;;;5042574;28;20415;-55
2021/03/12 04:54:45;;;;;;;12.43;5.05;;;;;;;;;;5042024;28;20212;-54
2021/03/12 04:57:29;;;;;;;10.32;5.18;;;;;;;;;;5042832;28;20181;-54
2021/03/12 04:59:56;;;;;;;10.68;4.63;;;;;;;;;;5042697;28;20227;-55
2021/03/12 05:02:25;;;;;;;7.53;4.05;;;;;;;;;;5040010;28;20247;-56
2021/03/12 05:04:51;;;;;;;6.78;4.80;;;;;;;;;;5042176;28;20203;-53
2021/03/12 05:07:36;;;;;;;9.40;4.27;;;;;;;;;;5042439;28;20231;-50
2021/03/12 05:10:16;;;;;;;8.40;4.40;;;;;;;;;;5042299;28;20489;-53
2021/03/12 05:12:45;;;;;;;9.95;3.65;;;;;;;;;;5042962;28;20442;-53
2021/03/12 05:15:11;;;;;;;16.65;4.55;;;;;;;;;;5043253;28;20179;-54
2021/03/12 05:17:43;;;;;;;8.38;4.70;;;;;;;;;;5042858;28;20173;-51
2021/03/12 05:20:09;;;;;;;10.77;5.35;;;;;;;;;;5042429;28;20175;-56
2021/03/12 05:22:35;;;;;;;12.50;5.95;;;;;;;;;;5042259;28;20222;-54
2021/03/12 05:25:11;;;;;;;12.68;6.10;;;;;;;;;;5041924;28;20271;-54
2021/03/12 05:27:37;;;;;;;12.98;4.60;;;;;;;;;;5039737;28;20210;-55
2021/03/12 05:30:09;;;;;;;11.87;4.40;;;;;;;;;;5042373;28;20163;-53
2021/03/12 05:32:37;;;;;;;8.63;4.25;;;;;;;;;;5040510;28;20421;-55
2021/03/12 05:35:04;;;;;;;8.23;4.03;;;;;;;;;;5042830;28;20225;-55
2021/03/12 05:37:35;;;;;;;8.70;4.43;;;;;;;;;;5042408;28;20175;-53
2021/03/12 05:40:04;;;;;;;7.75;4.88;;;;;;;;;;5041833;28;20202;-55
2021/03/12 05:42:49;;;;;;;10.70;4.78;;;;;;;;;;5042319;28;20262;-54
2021/03/12 05:45:17;;;;;;;7.53;3.17;;;;;;;;;;5040840;28;20611;-54
2021/03/12 05:47:43;;;;;;;6.28;2.90;;;;;;;;;;5040074;28;20200;-54
2021/03/12 05:50:10;;;;;;;8.27;2.75;;;;;;;;;;5041259;28;20171;-54
2021/03/12 05:52:36;;;;;;;5.32;2.67;;;;;;;;;;5041311;28;20250;-55
2021/03/12 05:55:02;;;;;;;8.07;3.40;;;;;;;;;;5041614;28;20199;-55
2021/03/12 05:57:31;;;;;;;13.27;3.40;;;;;;;;;;5040009;28;21123;-56
2021/03/12 06:00:00;;;;;;;7.00;2.88;;;;;;;;;;5039105;28;20177;-53
2021/03/12 06:02:34;;;;;;;6.18;2.90;;;;;;;;;;5040869;28;20210;-54
2021/03/12 06:05:00;;;;;;;6.82;2.40;;;;;;;;;;5041497;28;20196;-53
2021/03/12 06:07:27;;;;;;;9.20;2.50;;;;;;;;;;5041181;28;20231;-53
2021/03/12 06:10:00;;;;;;;4.43;2.28;;;;;;;;;;5042042;28;20195;-54
2021/03/12 06:12:39;;;;;;;;;;;;;;;;;;;;;
2021/03/12 06:15:06;;;;;;;7.38;2.25;;;;;;;;;;5041460;28;20227;-55
2021/03/12 06:17:37;;;;;;;6.32;2.58;;;;;;;;;;5040468;28;20180;-54
2021/03/12 06:20:24;;;;;;;10.85;3.70;;;;;;;;;;5043643;28;20175;-53
2021/03/12 06:23:04;;;;;;;10.80;3.28;;;;;;;;;;5046024;28;20709;-54
2021/03/12 06:25:46;;;;;;;9.10;3.67;;;;;;;;;;5045590;28;20199;-53
2021/03/12 06:28:13;;;;;;;4.50;2.58;;;;;;;;;;5033746;28;20223;-52
2021/03/12 06:30:39;;;;;;;5.50;2.10;;;;;;;;;;5035170;28;20226;-51
2021/03/12 06:33:05;;;;;;;8.57;2.97;;;;;;;;;;5036782;28;20206;-51
2021/03/12 06:35:36;;;;;;;7.40;2.67;;;;;;;;;;5037990;28;20248;-52
2021/03/12 06:38:11;;;;;;;8.85;2.60;;;;;;;;;;5035031;28;20199;-51
2021/03/12 06:40:37;;;;;;;7.07;2.45;;;;;;;;;;5033764;28;20210;-51
2021/03/12 06:43:10;;;;;;;8.85;2.72;;;;;;;;;;5036293;28;20171;-52
2021/03/12 06:45:42;;;;;;;8.00;2.60;;;;;;;;;;5036177;28;20214;-51
2021/03/12 06:48:15;;;;;;;13.10;3.40;;;;;;;;;;5036350;28;20426;-54
2021/03/12 06:50:48;;;;;;;12.35;2.88;;;;;;;;;;5037590;28;20168;-51
2021/03/12 06:53:21;;;;;;;7.90;3.67;;;;;;;;;;5037109;28;20229;-52
2021/03/12 06:55:48;;;;;;;9.98;3.10;;;;;;;;;;5036622;28;20199;-52
2021/03/12 06:58:14;;;;;;;8.40;2.80;;;;;;;;;;5037151;28;20195;-53
2021/03/12 07:00:41;;;;;;;8.02;2.63;;;;;;;;;;5034971;28;20447;-51
2021/03/12 07:03:22;;;;;;;7.33;3.07;;;;;;;;;;5036574;28;20183;-52
2021/03/12 07:06:12;;;;;;;14.77;2.95;;;;;;;;;;5036827;28;20450;-52
2021/03/12 07:08:38;;;;;;;18.85;3.38;;;;;;;;;;5036786;28;20271;-53
2021/03/12 07:11:16;;;;;;;10.87;3.20;;;;;;;;;;5037001;28;20167;-51
2021/03/12 07:13:43;;;;;;;16.30;5.80;;;;;;;;;;5036212;28;20408;-52
2021/03/12 07:16:09;;;;;;;9.68;3.53;;;;;;;;;;5036560;28;20758;-51
2021/03/12 07:18:35;;;;;;;7.67;2.53;;;;;;;;;;5035674;28;20193;-51
2021/03/12 07:21:02;;;;;;;13.87;4.50;;;;;;;;;;5036529;28;20402;-52
2021/03/12 07:23:28;;;;;;;8.50;3.53;;;;;;;;;;5037000;28;20441;-50
2021/03/12 07:25:55;;;;;;;10.23;3.67;;;;;;;;;;5036740;28;20507;-54
2021/03/12 07:28:27;;;;;;;11.20;3.67;;;;;;;;;;5036752;28;20420;-53
2021/03/12 07:30:55;;;;;;;8.73;3.30;;;;;;;;;;5033362;28;20440;-52
2021/03/12 07:33:25;;;;;;;10.70;3.13;;;;;;;;;;5036587;28;20404;-53
2021/03/12 07:35:52;;;;;;;13.07;3.53;;;;;;;;;;5036942;28;20667;-52
2021/03/12 07:38:21;;;;;;;5.80;3.10;;;;;;;;;;5016701;28;20949;-51
2021/03/12 07:40:47;;;;;;;10.17;4.10;;;;;;;;;;5016685;28;20416;-52
2021/03/12 07:43:16;;;;;;;8.97;3.40;;;;;;;;;;5018058;28;20435;-60
2021/03/12 07:45:45;;;;;;;11.53;3.37;;;;;;;;;;5023185;28;20504;-54
2021/03/12 07:48:12;;;;;;;10.50;3.07;;;;;;;;;;5018377;28;20949;-54
2021/03/12 07:50:39;;;;;;;7.20;2.50;;;;;;;;;;5033461;28;20462;-54
2021/03/12 07:53:06;;;;;;;16.63;3.73;;;;;;;;;;5036233;28;20414;-54
2021/03/12 07:55:35;;;;;;;7.90;3.33;;;;;;;;;;5036439;28;20406;-51
2021/03/12 07:58:02;;;;;;;21.20;4.00;;;;;;;;;;5036517;28;20430;-52
2021/03/12 08:00:28;;;;;;;11.40;3.40;;;;;;;;;;5036007;28;20449;-51
2021/03/12 08:02:58;;;;;;;14.30;2.97;;;;;;;;;;5029232;28;20461;-54
2021/03/12 08:05:42;;;;;;;16.40;3.70;;;;;;;;;;5013405;28;20472;-52
2021/03/12 08:08:30;;;;;;;11.13;3.47;;;;;;;;;;5003384;28;21027;-53
2021/03/12 08:11:14;;;;;;;12.20;3.67;;;;;;;;;;4997029;28;20940;-53
2021/03/12 08:14:03;;;;;;;10.50;3.87;;;;;;;;;;5000775;28;20407;-56
2021/03/12 08:19:46;;;;;;;16.07;3.47;;;;;;;;;;4959144;28;21289;-53
2021/03/12 08:22:41;;;;;;;;;;;;;;;;;;;;;
2021/03/12 08:25:32;;;;;;;16.20;4.63;;;;;;;;;;5027901;28;20535;-57
2021/03/12 08:28:27;;;;;;;8.87;3.20;;;;;;;;;;5033370;28;20429;-52
2021/03/12 08:30:55;;;;;;;11.47;3.10;;;;;;;;;;5037039;28;20414;-53
2021/03/12 08:33:31;;;;;;;;;;;;;;;;;;;;;
2021/03/12 08:35:58;;;;;;;4.77;2.50;;;;;;;;;;5038947;28;20460;-52
2021/03/12 08:38:32;;;;;;;18.00;3.87;;;;;;;;;;5033706;28;20614;-53
2021/03/12 08:41:13;;;;;;;7.23;2.90;;;;;;;;;;5036912;28;20403;-53
2021/03/12 08:43:50;;;;;;;18.53;3.43;;;;;;;;;;5038701;28;20497;-51
2021/03/12 08:46:20;;;;;;;12.03;3.67;;;;;;;;;;5039593;28;20544;-55
2021/03/12 08:48:48;;;;;;;4.73;2.67;;;;;;;;;;5038310;28;20428;-55
2021/03/12 08:51:37;;;;;;;9.53;3.63;;;;;;;;;;5033897;28;20434;-52
2021/03/12 08:54:07;;;;;;;8.03;2.70;;;;;;;;;;5040315;28;20418;-52
2021/03/12 08:56:34;;;;;;;10.90;3.30;;;;;;;;;;5036558;28;20417;-53
2021/03/12 08:59:01;;;;;;;7.60;3.50;;;;;;;;;;5037222;28;20501;-50
2021/03/12 09:01:30;;;;;;;13.67;2.90;;;;;;;;;;5037678;28;20641;-54
2021/03/12 09:03:58;;;;;;;8.43;2.67;;;;;;;;;;5035750;28;20454;-52
2021/03/12 09:06:34;;;;;;;7.97;2.80;;;;;;;;;;5037072;28;20430;-53
2021/03/12 09:09:00;;;;;;;11.67;2.80;;;;;;;;;;5034831;28;20601;-50
2021/03/12 09:11:31;;;;;;;6.73;3.17;;;;;;;;;;5037630;28;20453;-54
2021/03/12 09:13:58;;;;;;;7.57;3.00;;;;;;;;;;5036351;28;20425;-53
2021/03/12 09:16:29;;;;;;;10.83;3.17;;;;;;;;;;5036601;28;20424;-54
2021/03/12 09:18:57;;;;;;;9.40;2.77;;;;;;;;;;5034131;28;20418;-53
2021/03/12 09:21:24;;;;;;;10.80;2.77;;;;;;;;;;5019900;28;20463;-54
2021/03/12 09:23:54;;;;;;;12.10;2.90;;;;;;;;;;5016243;28;20394;-54
2021/03/12 09:26:27;;;;;;;8.43;2.37;;;;;;;;;;5015931;28;20846;-53
2021/03/12 09:28:56;;;;;;;11.90;4.30;;;;;;;;;;5028157;28;20450;-53
2021/03/12 09:31:29;;;;;;;6.83;2.17;;;;;;;;;;5032110;28;20458;-54
2021/03/12 09:33:55;;;;;;;16.10;3.70;;;;;;;;;;5031378;28;20398;-53
2021/03/12 09:36:23;;;;;;;10.13;3.50;;;;;;;;;;5033210;28;20493;-52
2021/03/12 09:38:51;;;;;;;13.03;3.67;;;;;;;;;;5030556;28;20945;-53
2021/03/12 09:41:24;;;;;;;10.30;3.27;;;;;;;;;;5030726;28;20883;-52
2021/03/12 09:44:00;;;;;;;11.07;3.40;;;;;;;;;;5028647;28;20525;-51
2021/03/12 09:46:30;;;;;;;11.70;3.60;;;;;;;;;;5030501;28;20414;-49
2021/03/12 09:48:57;;;;;;;7.37;3.30;;;;;;;;;;5030373;28;20419;-51
2021/03/12 09:51:24;;;;;;;6.27;3.07;;;;;;;;;;5030465;28;20812;-52
2021/03/12 09:53:51;;;;;;;6.00;3.03;;;;;;;;;;5032826;28;20790;-50
2021/03/12 09:56:21;;;;;;;11.07;3.50;;;;;;;;;;5034483;28;20802;-50
2021/03/12 09:58:47;;;;;;;8.70;3.00;;;;;;;;;;5034390;28;20900;-49
2021/03/12 10:01:14;;;;;;;14.87;3.83;;;;;;;;;;5034575;28;20422;-52
2021/03/12 10:03:40;;;;;;;7.30;3.50;;;;;;;;;;5031325;28;20432;-52
2021/03/12 10:06:09;;;;;;;9.20;3.10;;;;;;;;;;5034908;28;20467;-52
2021/03/12 10:08:56;;;;;;;6.50;3.37;;;;;;;;;;5021878;28;20431;-51
2021/03/12 10:11:22;;;;;;;8.20;3.00;;;;;;;;;;5014660;28;20891;-52
2021/03/12 10:13:48;;;;;;;9.30;2.70;;;;;;;;;;5032679;28;20449;-52
2021/03/12 10:16:14;;;;;;;10.57;3.23;;;;;;;;;;5034221;28;20874;-49
2021/03/12 10:18:40;;;;;;;13.40;3.73;;;;;;;;;;5033858;28;20898;-51
2021/03/12 10:21:09;;;;;;;11.20;3.23;;;;;;;;;;5034238;28;20415;-52
2021/03/12 10:23:35;;;;;;;6.17;3.27;;;;;;;;;;5034143;28;20406;-52
2021/03/12 10:26:04;;;;;;;9.40;3.23;;;;;;;;;;5034044;28;20956;-53
2021/03/12 10:28:30;;;;;;;15.23;3.40;;;;;;;;;;5032025;28;20444;-53
2021/03/12 10:30:57;;;;;;;10.37;3.00;;;;;;;;;;5033969;28;20401;-52
2021/03/12 10:33:27;;;;;;;15.37;3.37;;;;;;;;;;5034025;28;20412;-52
2021/03/12 10:35:54;;;;;;;9.30;3.53;;;;;;;;;;5033826;28;20433;-52
2021/03/12 10:38:20;;;;;;;6.27;2.90;;;;;;;;;;5033581;28;20499;-51
2021/03/12 10:40:49;;;;;;;12.93;3.43;;;;;;;;;;5033772;28;20819;-52
2021/03/12 10:43:15;;;;;;;5.37;2.97;;;;;;;;;;5033911;28;20487;-53
2021/03/12 10:45:45;;;;;;;7.03;2.77;;;;;;;;;;5033565;28;20543;-52
2021/03/12 10:48:11;;;;;;;6.03;2.70;;;;;;;;;;5033325;28;20432;-50
2021/03/12 10:50:37;;;;;;;6.80;2.70;;;;;;;;;;5033753;28;20485;-51
2021/03/12 10:53:05;;;;;;;8.17;2.47;;;;;;;;;;5033490;28;20811;-50
2021/03/12 10:55:32;;;;;;;6.13;2.23;;;;;;;;;;5033687;28;20464;-50
2021/03/12 10:57:59;;;;;;;9.50;2.83;;;;;;;;;;5028395;28;20958;-50
2021/03/12 11:00:26;;;;;;;5.43;2.33;;;;;;;;;;5033335;28;20426;-49
2021/03/12 11:02:56;;;;;;;8.63;2.53;;;;;;;;;;5033216;28;20405;-49
2021/03/12 11:05:22;;;;;;;5.00;2.67;;;;;;;;;;5031208;28;20883;-49
2021/03/12 11:07:49;;;;;;;11.87;2.40;;;;;;;;;;5031976;28;20969;-49
2021/03/12 11:10:15;;;;;;;5.80;2.47;;;;;;;;;;5033324;28;20423;-51
2021/03/12 11:12:44;;;;;;;16.30;3.30;;;;;;;;;;5033153;28;20402;-50
2021/03/12 11:15:11;;;;;;;8.93;2.83;;;;;;;;;;5032875;28;20409;-49
2021/03/12 11:17:37;;;;;;;9.20;2.80;;;;;;;;;;5032926;28;20897;-50
2021/03/12 11:20:06;;;;;;;16.90;4.47;;;;;;;;;;5033010;28;20408;-50
2021/03/12 11:22:32;;;;;;;11.37;3.40;;;;;;;;;;5033791;28;20400;-53
2021/03/12 11:24:58;;;;;;;7.13;2.30;;;;;;;;;;5033102;28;20469;-54
2021/03/12 11:27:24;;;;;;;7.90;2.60;;;;;;;;;;5033597;28;20490;-54
2021/03/12 11:29:50;;;;;;;7.93;2.40;;;;;;;;;;5030706;28;20424;-53
2021/03/12 11:32:16;;;;;;;8.87;2.83;;;;;;;;;;5033561;28;20460;-52
2021/03/12 11:34:42;;;;;;;6.37;3.30;;;;;;;;;;5036348;28;20402;-52
2021/03/12 11:37:08;;;;;;;9.50;2.73;;;;;;;;;;5033709;28;20410;-53
2021/03/12 11:39:34;;;;;;;10.70;2.30;;;;;;;;;;5032908;28;20422;-52
2021/03/12 11:42:00;;;;;;;7.03;2.10;;;;;;;;;;5032977;28;20425;-53
2021/03/12 11:44:26;;;;;;;7.43;2.20;;;;;;;;;;5032777;28;20449;-55
2021/03/12 11:46:52;;;;;;;8.50;2.73;;;;;;;;;;5032679;28;20408;-53
2021/03/12 11:49:18;;;;;;;9.33;2.63;;;;;;;;;;5032412;28;20477;-53
2021/03/12 11:51:46;;;;;;;8.07;2.37;;;;;;;;;;5032632;28;20960;-51
2021/03/12 11:54:12;;;;;;;9.17;2.53;;;;;;;;;;5032537;28;20413;-49
2021/03/12 11:56:38;;;;;;;5.37;2.27;;;;;;;;;;5032537;28;20488;-50
2021/03/12 11:59:04;;;;;;;12.07;2.73;;;;;;;;;;5030623;28;20485;-49
2021/03/12 12:01:34;;;;;;;7.60;2.27;;;;;;;;;;5032287;28;20471;-52
2021/03/12 12:04:00;;;;;;;8.17;2.93;;;;;;;;;;5032488;28;20438;-51
2021/03/12 12:06:26;;;;;;;12.90;3.53;;;;;;;;;;5032495;28;20755;-50
2021/03/12 12:08:52;;;;;;;12.30;2.60;;;;;;;;;;5032491;28;20420;-48
2021/03/12 12:11:18;;;;;;;9.90;2.93;;;;;;;;;;5032372;28;20401;-48
2021/03/12 12:13:44;;;;;;;10.10;3.03;;;;;;;;;;5032180;28;20406;-49
2021/03/12 12:16:10;;;;;;;11.27;2.87;;;;;;;;;;5031960;28;20401;-49
2021/03/12 12:18:36;;;;;;;7.70;2.33;;;;;;;;;;5031667;28;20469;-50
2021/03/12 12:21:02;;;;;;;7.10;2.23;;;;;;;;;;5032000;28;20406;-51
2021/03/12 12:23:28;;;;;;;5.80;1.97;;;;;;;;;;5031897;28;20410;-52
2021/03/12 12:25:54;;;;;;;7.10;2.63;;;;;;;;;;5031910;28;20477;-52
2021/03/12 12:28:20;;;;;;;5.63;1.80;;;;;;;;;;5028918;28;20464;-52
2021/03/12 12:30:46;;;;;;;4.50;2.23;;;;;;;;;;5031780;28;20877;-49
2021/03/12 12:33:12;;;;;;;7.90;2.80;;;;;;;;;;5031778;28;20897;-49
2021/03/12 12:35:38;;;;;;;5.00;2.10;;;;;;;;;;5031844;28;20787;-49
2021/03/12 12:38:06;;;;;;;8.63;2.20;;;;;;;;;;5031450;28;20977;-51
2021/03/12 12:40:32;;;;;;;5.40;2.30;;;;;;;;;;5031413;28;20412;-49
2021/03/12 12:42:58;;;;;;;12.40;2.70;;;;;;;;;;5032064;28;20788;-49
2021/03/12 12:45:24;;;;;;;6.33;2.30;;;;;;;;;;5025078;28;20460;-49
2021/03/12 12:47:50;;;;;;;8.30;2.00;;;;;;;;;;5009681;28;20509;-50
2021/03/12 12:50:18;;;;;;;6.43;2.40;;;;;;;;;;5010798;28;20410;-53
2021/03/12 12:52:44;;;;;;;5.70;2.27;;;;;;;;;;5010825;28;20401;-52
2021/03/12 12:55:10;;;;;;;5.27;2.07;;;;;;;;;;5011771;28;20545;-52
2021/03/12 12:57:37;;;;;;;5.80;1.90;;;;;;;;;;5011306;28;20408;-53
2021/03/12 13:00:05;;;;;;;6.20;2.17;;;;;;;;;;5025386;28;20504;-52
2021/03/12 13:02:31;;;;;;;5.23;2.00;;;;;;;;;;5031225;28;20425;-52
2021/03/12 13:04:57;;;;;;;9.87;2.37;;;;;;;;;;5031128;28;20448;-51
2021/03/12 13:07:23;;;;;;;5.20;1.70;;;;;;;;;;5030781;28;20404;-52
2021/03/12 13:09:49;;;;;;;9.70;2.50;;;;;;;;;;5013555;28;20560;-52
2021/03/12 13:12:15;;;;;;;7.10;2.90;;;;;;;;;;5031031;28;20405;-52
2021/03/12 13:14:41;;;;;;;8.87;2.03;;;;;;;;;;5028764;28;20454;-52
2021/03/12 13:17:07;;;;;;;5.60;1.93;;;;;;;;;;5022159;28;20410;-51
2021/03/12 13:19:33;;;;;;;8.27;2.30;;;;;;;;;;5029785;28;20429;-52
2021/03/12 13:21:59;;;;;;;6.50;1.97;;;;;;;;;;5011519;28;20478;-49
2021/03/12 13:24:25;;;;;;;4.97;1.93;;;;;;;;;;5011012;28;20958;-49
2021/03/12 13:26:51;;;;;;;8.70;2.20;;;;;;;;;;5011283;28;20497;-49
2021/03/12 13:29:17;;;;;;;11.60;2.40;;;;;;;;;;5008371;28;20876;-49
2021/03/12 13:31:43;;;;;;;6.00;2.30;;;;;;;;;;5010411;28;20435;-52
2021/03/12 13:34:09;;;;;;;12.30;2.20;;;;;;;;;;5010443;28;20439;-52
2021/03/12 13:36:35;;;;;;;8.93;2.33;;;;;;;;;;5009921;28;20830;-52
2021/03/12 13:39:03;;;;;;;11.97;3.10;;;;;;;;;;5009591;28;20439;-52
2021/03/12 13:41:29;;;;;;;9.40;1.90;;;;;;;;;;5010570;28;20415;-52
2021/03/12 13:43:55;;;;;;;12.07;3.50;;;;;;;;;;5010762;28;20440;-54
2021/03/12 13:46:21;;;;;;;7.53;2.30;;;;;;;;;;5010030;28;20464;-54
2021/03/12 13:48:47;;;;;;;4.57;2.93;;;;;;;;;;5009795;28;20916;-51
2021/03/12 13:51:13;;;;;;;7.13;2.10;;;;;;;;;;5010961;28;20413;-50
2021/03/12 13:53:39;;;;;;;10.63;2.70;;;;;;;;;;5010436;28;20413;-50
2021/03/12 13:56:05;;;;;;;8.23;2.13;;;;;;;;;;5010706;28;20753;-50
2021/03/12 13:58:31;;;;;;;5.70;1.97;;;;;;;;;;5010945;28;20450;-53
2021/03/12 14:00:57;;;;;;;9.73;3.40;;;;;;;;;;5010326;28;20427;-54
2021/03/12 14:03:23;;;;;;;9.43;2.13;;;;;;;;;;5010469;28;20469;-54
2021/03/12 14:05:50;;;;;;;12.17;2.30;;;;;;;;;;5010227;28;20452;-50
2021/03/12 14:08:15;;;;;;;12.47;2.30;;;;;;;;;;5012315;28;20419;-54
2021/03/12 14:10:41;;;;;;;3.20;1.83;;;;;;;;;;5012639;28;20458;-54
2021/03/12 14:13:08;;;;;;;5.40;1.60;;;;;;;;;;5010453;28;20431;-50
2021/03/12 14:15:34;;;;;;;8.03;2.20;;;;;;;;;;5011152;28;20406;-50
2021/03/12 14:18:00;;;;;;;9.93;2.07;;;;;;;;;;5010450;28;20520;-53
2021/03/12 14:20:26;;;;;;;3.83;1.90;;;;;;;;;;5010602;28;20415;-51
2021/03/12 14:22:52;;;;;;;9.67;2.77;;;;;;;;;;5010249;28;20414;-53
2021/03/12 14:25:18;;;;;;;6.43;2.97;;;;;;;;;;5010939;28;20455;-51
2021/03/12 14:27:44;;;;;;;4.73;1.73;;;;;;;;;;5010511;28;20427;-50
2021/03/12 14:30:10;;;;;;;5.37;2.27;;;;;;;;;;5027287;28;20489;-50
2021/03/12 14:32:36;;;;;;;2.90;1.80;;;;;;;;;;5030784;28;21057;-51
2021/03/12 14:35:02;;;;;;;9.47;2.33;;;;;;;;;;5017512;28;20419;-51
2021/03/12 14:37:28;;;;;;;3.97;2.13;;;;;;;;;;5011295;28;20416;-51
2021/03/12 14:39:54;;;;;;;6.47;2.60;;;;;;;;;;5013205;28;20469;-52
2021/03/12 14:42:22;;;;;;;8.17;2.20;;;;;;;;;;5017695;28;20407;-54
2021/03/12 14:44:48;;;;;;;7.80;2.17;;;;;;;;;;5016914;28;20552;-57
2021/03/12 14:47:14;;;;;;;8.07;2.80;;;;;;;;;;5016716;28;20410;-52
2021/03/12 14:49:40;;;;;;;7.03;2.50;;;;;;;;;;5016553;28;20435;-52
2021/03/12 14:52:06;;;;;;;7.43;1.97;;;;;;;;;;5016421;28;20454;-54